createdAt,value
2018-04-10T00:00:52.481Z,1.00
2018-04-10T00:03:19.948Z,1.00
2018-04-10T00:05:47.407Z,1.00
2018-04-10T00:08:16.783Z,1.00
2018-04-10T00:10:45.003Z,1.00
2018-04-10T00:13:12.474Z,1.00
2018-04-10T00:15:40.692Z,1.00
2018-04-10T00:18:08.148Z,1.00
2018-04-10T00:20:36.375Z,1.00
2018-04-10T00:23:03.824Z,1.00
2018-04-10T00:25:32.044Z,1.00
2018-04-10T00:28:09.577Z,1.00
2018-04-10T00:30:37.026Z,1.00
2018-04-10T00:33:05.255Z,1.00
2018-04-10T00:35:32.722Z,1.00
2018-04-10T00:38:00.936Z,1.00
2018-04-10T00:40:28.389Z,1.00
2018-04-10T00:42:56.624Z,1.00
2018-04-10T00:45:24.081Z,1.00
2018-04-10T00:47:52.308Z,1.00
2018-04-10T00:50:19.776Z,1.00
2018-04-10T00:52:47.228Z,1.00
2018-04-10T00:55:14.672Z,1.00
2018-04-10T00:57:42.135Z,1.00
2018-04-10T01:00:09.583Z,1.00
2018-04-10T01:02:42.028Z,1.00
2018-04-10T01:05:09.486Z,1.00
2018-04-10T01:07:36.953Z,1.00
2018-04-10T01:10:05.163Z,1.00
2018-04-10T01:12:32.627Z,1.00
2018-04-10T01:15:00.853Z,1.00
2018-04-10T01:17:30.256Z,1.00
2018-04-10T01:19:58.482Z,1.00
2018-04-10T01:22:25.941Z,1.00
2018-04-10T01:24:54.160Z,1.00
2018-04-10T01:27:21.616Z,1.00
2018-04-10T01:29:50.821Z,1.00
2018-04-10T01:32:18.280Z,1.00
2018-04-10T01:34:47.638Z,1.00
2018-04-10T01:37:15.100Z,1.70
2018-04-10T01:39:48.443Z,5.70
2018-04-10T01:42:15.900Z,4.00
2018-04-10T01:44:43.356Z,4.50
2018-04-10T01:47:10.804Z,4.90
2018-04-10T01:49:56.432Z,1.90
2018-04-10T01:52:23.893Z,1.80
2018-04-10T01:54:52.108Z,3.80
2018-04-10T01:57:29.571Z,3.80
2018-04-10T01:59:57.018Z,5.20
2018-04-10T02:02:24.484Z,6.60
2018-04-10T02:04:52.701Z,6.00
2018-04-10T02:07:20.152Z,6.30
2018-04-10T02:09:48.373Z,5.10
2018-04-10T02:12:15.827Z,5.10
2018-04-10T02:14:43.284Z,6.00
2018-04-10T02:17:10.739Z,6.70
2018-04-10T02:22:32.108Z,11.40
2018-04-10T02:24:59.568Z,11.10
2018-04-10T02:27:27.811Z,10.60
2018-04-10T02:29:55.270Z,10.30
2018-04-10T02:32:22.743Z,10.00
2018-04-10T02:34:50.973Z,12.10
2018-04-10T02:37:18.449Z,12.30
2018-04-10T02:39:45.904Z,11.10
2018-04-10T02:42:15.146Z,15.70
2018-04-10T02:44:42.610Z,16.20
2018-04-10T02:47:10.861Z,34.50
2018-04-10T02:49:38.317Z,34.50
2018-04-10T02:52:05.790Z,35.00
2018-04-10T02:54:33.269Z,27.00
2018-04-10T02:57:02.472Z,23.80
2018-04-10T02:59:30.704Z,27.80
2018-04-10T03:01:58.166Z,27.60
2018-04-10T03:04:26.405Z,24.10
2018-04-10T03:06:53.860Z,23.80
2018-04-10T03:09:21.330Z,19.20
2018-04-10T03:11:49.572Z,25.00
2018-04-10T03:14:18.953Z,25.30
2018-04-10T03:16:47.187Z,27.90
2018-04-10T03:19:14.653Z,28.00
2018-04-10T03:21:43.027Z,32.20
2018-04-10T03:24:10.499Z,53.30
2018-04-10T03:26:41.784Z,81.80
2018-04-10T03:29:09.258Z,83.10
2018-04-10T03:31:36.717Z,73.00
2018-04-10T03:34:04.180Z,67.90
2018-04-10T03:36:31.677Z,62.80
2018-04-10T03:38:59.168Z,65.80
2018-04-10T03:41:26.625Z,71.40
2018-04-10T03:43:54.100Z,76.50
2018-04-10T03:46:21.570Z,78.40
2018-04-10T03:48:53.445Z,78.20
2018-04-10T03:51:21.674Z,73.70
2018-04-10T03:53:49.145Z,73.20
2018-04-10T03:56:16.615Z,80.20
2018-04-10T03:58:46.859Z,86.00
2018-04-10T04:01:15.086Z,76.90
2018-04-10T04:03:42.548Z,77.10
2018-04-10T04:06:10.008Z,68.70
2018-04-10T04:08:38.257Z,64.10
2018-04-10T04:11:05.721Z,64.30
2018-04-10T04:13:33.197Z,58.90
2018-04-10T04:16:01.584Z,65.90
2018-04-10T04:18:41.785Z,71.80
2018-04-10T04:21:22.462Z,72.10
2018-04-10T04:23:50.705Z,77.20
2018-04-10T04:26:18.169Z,77.10
2018-04-10T04:28:45.645Z,80.80
2018-04-10T04:31:13.119Z,80.60
2018-04-10T04:33:40.598Z,80.00
2018-04-10T04:36:08.839Z,95.10
2018-04-10T04:38:37.311Z,95.10
2018-04-10T04:41:04.777Z,97.00
2018-04-10T04:43:33.017Z,84.80
2018-04-10T04:46:00.492Z,84.80
2018-04-10T04:48:28.301Z,73.70
2018-04-10T04:50:55.770Z,68.80
2018-04-10T04:53:23.250Z,69.00
2018-04-10T04:55:50.722Z,71.60
2018-04-10T04:58:18.194Z,63.80
2018-04-10T05:00:46.574Z,61.30
2018-04-10T05:03:14.826Z,69.80
2018-04-10T05:05:42.323Z,69.90
2018-04-10T05:08:19.957Z,71.80
2018-04-10T05:10:57.458Z,70.60
2018-04-10T05:13:24.928Z,73.50
2018-04-10T05:15:52.399Z,72.90
2018-04-10T05:18:19.873Z,72.30
2018-04-10T05:20:47.339Z,70.70
2018-04-10T05:23:25.766Z,69.70
2018-04-10T05:25:53.222Z,65.90
2018-04-10T05:28:21.456Z,61.10
2018-04-10T05:31:01.281Z,61.30
2018-04-10T05:33:29.521Z,63.70
2018-04-10T05:35:57.026Z,63.70
2018-04-10T05:38:24.496Z,65.30
2018-04-10T05:40:51.958Z,65.70
2018-04-10T05:43:19.430Z,64.70
2018-04-10T05:45:46.885Z,55.00
2018-04-10T05:48:15.121Z,50.80
2018-04-10T05:50:42.593Z,50.60
2018-04-10T05:53:10.079Z,52.80
2018-04-10T05:58:41.485Z,54.70
2018-04-10T06:01:10.750Z,53.30
2018-04-10T06:03:38.220Z,51.30
2018-04-10T06:06:07.214Z,49.30
2018-04-10T06:08:45.310Z,51.80
2018-04-10T06:11:12.775Z,47.10
2018-04-10T06:13:42.177Z,40.70
2018-04-10T06:16:09.641Z,34.30
2018-04-10T06:18:46.992Z,28.20
2018-04-10T06:21:15.501Z,25.70
2018-04-10T06:23:42.969Z,22.50
2018-04-10T06:26:12.366Z,24.10
2018-04-10T06:28:40.604Z,17.40
2018-04-10T06:31:08.073Z,18.00
2018-04-10T06:33:35.546Z,15.10
2018-04-10T06:36:03.012Z,8.40
2018-04-10T06:38:31.250Z,5.80
2018-04-10T06:40:58.741Z,5.70
2018-04-10T06:43:26.198Z,3.60
2018-04-10T06:45:53.673Z,4.30
2018-04-10T06:48:21.132Z,2.00
2018-04-10T06:50:48.598Z,1.00
2018-04-10T06:53:16.062Z,1.00
2018-04-10T06:55:43.537Z,1.00
2018-04-10T06:58:15.573Z,1.00
2018-04-10T07:00:43.800Z,1.00
2018-04-10T07:03:11.282Z,1.00
2018-04-10T07:05:38.755Z,1.00
2018-04-10T07:08:06.208Z,1.00
2018-04-10T07:10:34.455Z,1.00
2018-04-10T07:13:01.931Z,1.00
2018-04-10T07:15:29.408Z,1.00
2018-04-10T07:17:56.862Z,1.00
2018-04-10T07:20:25.106Z,1.00
2018-04-10T07:22:52.560Z,1.00
2018-04-10T07:25:20.028Z,1.00
2018-04-10T07:27:47.522Z,1.00
2018-04-10T07:30:15.762Z,1.00
2018-04-10T07:32:43.230Z,1.00
2018-04-10T07:35:10.715Z,1.00
2018-04-10T07:37:38.181Z,1.00
2018-04-10T07:40:05.662Z,1.00
2018-04-10T07:42:33.139Z,1.00
2018-04-10T07:45:00.620Z,1.00
2018-04-10T07:47:28.846Z,1.00
2018-04-10T07:49:56.311Z,1.00
2018-04-10T07:52:23.778Z,1.00
2018-04-10T07:54:52.022Z,1.00
2018-04-10T07:57:19.491Z,1.00
2018-04-10T07:59:46.971Z,1.00
2018-04-10T08:02:15.199Z,1.00
2018-04-10T08:04:42.688Z,1.00
2018-04-10T08:07:10.136Z,1.00
2018-04-10T08:09:38.378Z,1.00
2018-04-10T08:12:05.838Z,1.00
2018-04-10T08:14:33.316Z,1.00
2018-04-10T08:17:00.774Z,1.00
2018-04-10T08:19:28.249Z,1.00
2018-04-10T08:21:55.712Z,1.00
2018-04-10T08:24:23.945Z,1.00
2018-04-10T08:26:51.410Z,1.00
2018-04-10T08:29:18.886Z,1.00
2018-04-10T08:31:46.364Z,1.00
2018-04-10T08:34:13.835Z,1.00
2018-04-10T08:36:42.065Z,1.00
2018-04-10T08:39:09.530Z,1.00
2018-04-10T08:41:36.988Z,1.00
2018-04-10T08:44:05.222Z,1.00
2018-04-10T08:46:32.688Z,1.00
2018-04-10T08:49:00.918Z,1.00
2018-04-10T08:51:29.161Z,1.00
2018-04-10T08:53:56.620Z,1.00
2018-04-10T08:56:24.106Z,1.00
2018-04-10T08:58:51.573Z,1.00
2018-04-10T09:01:19.041Z,1.00
2018-04-10T09:03:46.558Z,1.00
2018-04-10T09:06:14.022Z,1.00
2018-04-10T09:08:41.481Z,1.00
2018-04-10T09:11:08.955Z,1.00
2018-04-10T09:13:36.422Z,1.00
2018-04-10T09:16:04.658Z,1.00
2018-04-10T09:18:32.126Z,1.00
2018-04-10T09:21:00.362Z,1.00
2018-04-10T09:23:27.831Z,1.00
2018-04-10T09:25:55.308Z,1.00
2018-04-10T09:28:22.760Z,1.00
2018-04-10T09:30:50.237Z,1.00
2018-04-10T09:33:17.698Z,1.00
2018-04-10T09:35:45.939Z,1.00
2018-04-10T09:38:13.406Z,1.00
2018-04-10T09:40:42.764Z,1.00
2018-04-10T09:43:10.226Z,1.00
2018-04-10T09:45:37.701Z,1.00
2018-04-10T09:48:05.167Z,1.00
2018-04-10T09:50:33.407Z,1.00
2018-04-10T09:53:00.862Z,1.00
2018-04-10T09:55:28.346Z,1.00
2018-04-10T09:57:55.831Z,1.00
2018-04-10T10:00:32.025Z,1.00
2018-04-10T10:02:59.482Z,1.00
2018-04-10T10:05:26.953Z,1.00
2018-04-10T10:07:54.418Z,1.00
2018-04-10T10:10:21.885Z,1.00
2018-04-10T10:12:49.343Z,1.00
2018-04-10T10:15:17.535Z,1.00
2018-04-10T10:17:44.997Z,1.00
2018-04-10T10:20:12.477Z,1.00
2018-04-10T10:22:39.938Z,1.00
2018-04-10T10:25:07.409Z,1.00
2018-04-10T10:27:34.870Z,1.00
2018-04-10T10:30:02.338Z,1.00
2018-04-10T10:32:29.802Z,1.00
2018-04-10T10:34:57.290Z,1.00
2018-04-10T10:37:24.741Z,1.00
2018-04-10T10:39:52.983Z,1.00
2018-04-10T10:42:20.445Z,1.00
2018-04-10T10:44:47.906Z,1.00
2018-04-10T10:47:16.142Z,1.00
2018-04-10T10:49:43.601Z,1.00
2018-04-10T10:52:11.075Z,1.00
2018-04-10T10:54:39.306Z,1.00
2018-04-10T10:57:06.782Z,1.00
2018-04-10T10:59:34.238Z,1.00
2018-04-10T11:02:02.478Z,1.00
2018-04-10T11:04:29.941Z,1.00
2018-04-10T11:06:57.423Z,1.00
2018-04-10T11:09:24.886Z,1.00
2018-04-10T11:11:53.122Z,1.00
2018-04-10T11:14:20.586Z,1.00
2018-04-10T11:16:48.056Z,1.00
2018-04-10T11:19:15.518Z,1.00
2018-04-10T11:21:43.768Z,1.00
2018-04-10T11:24:11.231Z,1.00
2018-04-10T11:26:38.703Z,1.00
2018-04-10T11:29:06.182Z,1.00
2018-04-10T11:31:34.427Z,1.00
2018-04-10T11:34:01.884Z,1.00
2018-04-10T11:36:29.357Z,1.00
2018-04-10T11:38:56.819Z,1.00
2018-04-10T11:41:25.052Z,1.00
2018-04-10T11:43:53.389Z,1.00
2018-04-10T11:46:20.874Z,1.00
2018-04-10T11:48:48.348Z,1.00
2018-04-10T11:51:15.821Z,1.00
2018-04-10T11:53:43.292Z,1.00
2018-04-10T11:56:10.782Z,1.00
2018-04-10T11:58:38.240Z,1.00
2018-04-10T12:01:05.717Z,1.00
2018-04-10T12:03:33.190Z,1.00
2018-04-10T12:06:00.659Z,1.00
2018-04-10T12:08:28.891Z,1.00
2018-04-10T12:10:56.366Z,1.00
2018-04-10T12:13:23.840Z,1.00
2018-04-10T12:15:54.427Z,1.00
2018-04-10T12:18:21.872Z,1.00
2018-04-10T12:20:50.118Z,1.00
2018-04-10T12:23:17.587Z,1.00
2018-04-10T12:25:45.062Z,1.00
2018-04-10T12:28:12.517Z,1.00
2018-04-10T12:30:40.033Z,1.00
2018-04-10T12:33:07.498Z,1.00
2018-04-10T12:35:35.012Z,1.00
2018-04-10T12:38:02.439Z,1.00
2018-04-10T12:40:30.684Z,1.00
2018-04-10T12:42:58.141Z,1.00
2018-04-10T12:45:25.612Z,1.00
2018-04-10T12:47:53.846Z,1.00
2018-04-10T12:50:21.315Z,1.00
2018-04-10T12:52:48.788Z,1.00
2018-04-10T12:55:16.248Z,1.00
2018-04-10T12:57:44.485Z,1.00
2018-04-10T13:00:11.947Z,1.00
2018-04-10T13:02:39.451Z,1.00
2018-04-10T13:05:06.919Z,1.00
2018-04-10T13:07:34.433Z,1.00
2018-04-10T13:10:01.877Z,1.00
2018-04-10T13:12:29.373Z,1.00
2018-04-10T13:14:56.825Z,1.00
2018-04-10T13:17:25.065Z,1.00
2018-04-10T13:19:52.537Z,1.00
2018-04-10T13:22:20.009Z,1.00
2018-04-10T13:24:47.478Z,1.00
2018-04-10T13:27:15.709Z,1.00
2018-04-10T13:29:43.199Z,1.00
2018-04-10T13:32:10.820Z,1.00
2018-04-10T13:34:38.281Z,1.00
2018-04-10T13:37:05.750Z,1.00
2018-04-10T13:39:33.222Z,1.00
2018-04-10T13:42:00.713Z,1.00
2018-04-10T13:44:28.177Z,1.00
2018-04-10T13:46:55.649Z,1.00
2018-04-10T13:49:23.114Z,1.00
2018-04-10T13:51:51.355Z,1.00
2018-04-10T13:54:18.845Z,1.00
2018-04-10T13:56:46.324Z,1.00
2018-04-10T13:59:13.791Z,1.00
2018-04-10T14:01:41.258Z,1.00
2018-04-10T14:04:08.739Z,1.00
2018-04-10T14:06:36.209Z,1.00
2018-04-10T14:09:04.454Z,1.00
2018-04-10T14:11:31.929Z,1.00
2018-04-10T14:13:59.406Z,1.00
2018-04-10T14:16:26.890Z,1.00
2018-04-10T14:18:54.358Z,1.00
2018-04-10T14:21:21.829Z,1.00
2018-04-10T14:23:49.290Z,1.00
2018-04-10T14:26:17.690Z,1.00
2018-04-10T14:28:45.942Z,1.00
2018-04-10T14:31:13.501Z,1.00
2018-04-10T14:33:40.993Z,1.00
2018-04-10T14:36:08.487Z,1.00
2018-04-10T14:38:35.937Z,1.00
2018-04-10T14:41:04.179Z,1.00
2018-04-10T14:43:31.640Z,1.00
2018-04-10T14:45:59.134Z,1.00
2018-04-10T14:48:26.606Z,1.00
2018-04-10T14:50:54.078Z,1.00
2018-04-10T14:53:21.563Z,1.00
2018-04-10T14:55:49.917Z,1.00
2018-04-10T14:58:17.389Z,1.00
2018-04-10T15:00:44.856Z,1.00
2018-04-10T15:03:12.334Z,1.00
2018-04-10T15:05:39.835Z,1.00
2018-04-10T15:08:07.268Z,1.00
2018-04-10T15:10:34.734Z,1.00
2018-04-10T15:13:02.985Z,1.00
2018-04-10T15:15:30.445Z,1.00
2018-04-10T15:18:01.082Z,1.00
2018-04-10T15:20:28.533Z,1.00
2018-04-10T15:22:56.005Z,1.00
2018-04-10T15:25:23.470Z,1.00
2018-04-10T15:27:50.941Z,1.00
2018-04-10T15:30:18.401Z,1.00
2018-04-10T15:32:46.628Z,1.00
2018-04-10T15:35:14.099Z,1.00
2018-04-10T15:37:42.342Z,1.00
2018-04-10T15:40:09.816Z,1.00
2018-04-10T15:42:37.286Z,1.00
2018-04-10T15:45:04.754Z,1.00
2018-04-10T15:47:32.223Z,1.00
2018-04-10T15:50:00.449Z,1.00
2018-04-10T15:52:27.937Z,1.00
2018-04-10T15:54:55.405Z,1.00
2018-04-10T15:57:22.873Z,1.00
2018-04-10T15:59:50.342Z,1.00
2018-04-10T16:02:17.813Z,1.00
2018-04-10T16:04:45.277Z,1.00
2018-04-10T16:07:12.751Z,1.00
2018-04-10T16:09:40.252Z,1.00
2018-04-10T16:12:07.689Z,1.00
2018-04-10T16:14:35.155Z,1.00
2018-04-10T16:17:02.620Z,1.00
2018-04-10T16:19:30.178Z,1.00
2018-04-10T16:21:57.654Z,1.00
2018-04-10T16:24:26.082Z,1.00
2018-04-10T16:26:54.326Z,1.00
2018-04-10T16:29:28.097Z,1.00
2018-04-10T16:31:55.578Z,1.00
2018-04-10T16:34:23.047Z,1.00
2018-04-10T16:36:50.518Z,1.00
2018-04-10T16:39:17.990Z,1.00
2018-04-10T16:41:45.563Z,1.00
2018-04-10T16:44:15.052Z,1.00
2018-04-10T16:46:42.525Z,1.00
2018-04-10T16:49:09.986Z,1.00
2018-04-10T16:51:45.664Z,1.00
2018-04-10T16:54:14.374Z,1.00
2018-04-10T16:56:41.828Z,1.00
2018-04-10T16:59:12.666Z,1.00
2018-04-10T17:01:40.892Z,1.00
2018-04-10T17:04:09.277Z,1.00
2018-04-10T17:06:36.729Z,1.00
2018-04-10T17:09:06.901Z,1.00
2018-04-10T17:11:35.309Z,1.00
2018-04-10T17:14:02.786Z,1.00
2018-04-10T17:16:30.259Z,1.00
2018-04-10T17:18:59.714Z,1.00
2018-04-10T17:21:28.959Z,1.00
2018-04-10T17:23:56.430Z,1.00
2018-04-10T17:26:24.658Z,1.00
2018-04-10T17:28:53.137Z,1.00
2018-04-10T17:31:21.381Z,1.00
2018-04-10T17:34:00.769Z,1.00
2018-04-10T17:36:28.231Z,1.00
2018-04-10T17:38:55.743Z,1.00
2018-04-10T17:41:23.598Z,1.00
2018-04-10T17:44:01.570Z,1.00
2018-04-10T17:46:30.321Z,1.00
2018-04-10T17:48:57.784Z,1.00
2018-04-10T17:51:25.236Z,1.00
2018-04-10T17:54:00.570Z,1.00
2018-04-10T17:56:28.822Z,1.00
2018-04-10T17:58:56.291Z,1.00
2018-04-10T18:01:23.740Z,1.00
2018-04-10T18:03:52.166Z,1.00
2018-04-10T18:06:20.394Z,1.00
2018-04-10T18:08:57.722Z,1.00
2018-04-10T18:11:25.182Z,1.00
2018-04-10T18:13:52.658Z,1.00
2018-04-10T18:16:20.110Z,1.00
2018-04-10T18:18:47.586Z,1.00
2018-04-10T18:21:15.043Z,1.00
2018-04-10T18:26:32.582Z,1.00
2018-04-10T18:29:18.472Z,1.00
2018-04-10T18:31:45.935Z,1.00
2018-04-10T18:34:13.412Z,1.00
2018-04-10T18:36:41.634Z,1.00
2018-04-10T18:39:09.874Z,1.00
2018-04-10T18:41:49.509Z,1.00
2018-04-10T18:44:17.742Z,1.00
2018-04-10T18:46:45.209Z,1.00
2018-04-10T18:49:12.705Z,1.00
2018-04-10T18:51:41.162Z,1.00
2018-04-10T18:54:09.389Z,1.00
2018-04-10T18:56:36.842Z,1.00
2018-04-10T18:59:04.329Z,1.00
2018-04-10T19:01:32.586Z,1.00
2018-04-10T19:04:12.640Z,1.00
2018-04-10T19:06:47.834Z,1.00
2018-04-10T19:09:17.302Z,1.00
2018-04-10T19:11:45.521Z,1.00
2018-04-10T19:14:15.319Z,1.00
2018-04-10T19:16:42.778Z,1.00
2018-04-10T19:19:10.245Z,1.00
2018-04-10T19:21:37.700Z,1.00
2018-04-10T19:24:05.185Z,1.00
2018-04-10T19:26:37.406Z,1.00
2018-04-10T19:29:04.874Z,1.00
2018-04-10T19:31:35.019Z,1.00
2018-04-10T19:34:05.496Z,1.00
2018-04-10T19:36:36.842Z,1.00
2018-04-10T19:39:24.230Z,1.00
2018-04-10T19:41:51.718Z,1.00
2018-04-10T19:44:19.180Z,1.00
2018-04-10T19:46:47.411Z,1.00
2018-04-10T19:49:20.150Z,1.00
2018-04-10T19:51:55.470Z,1.00
2018-04-10T19:54:23.921Z,1.00
2018-04-10T19:56:52.138Z,1.00
2018-04-10T19:59:19.622Z,1.00
2018-04-10T20:01:47.077Z,1.00
2018-04-10T20:04:15.310Z,1.00
2018-04-10T20:06:42.768Z,1.00
2018-04-10T20:09:11.003Z,1.00
2018-04-10T20:11:38.462Z,1.00
2018-04-10T20:14:08.179Z,1.00
2018-04-10T20:16:36.413Z,1.00
2018-04-10T20:19:03.878Z,1.00
2018-04-10T20:21:31.369Z,1.00
2018-04-10T20:23:58.814Z,1.00
2018-04-10T20:26:26.264Z,1.00
2018-04-10T20:28:53.734Z,1.00
2018-04-10T20:31:25.382Z,1.00
2018-04-10T20:33:52.849Z,1.00
2018-04-10T20:36:20.305Z,1.00
2018-04-10T20:38:47.777Z,1.00
2018-04-10T20:41:15.237Z,1.00
2018-04-10T20:43:42.878Z,1.00
2018-04-10T20:46:16.732Z,1.00
2018-04-10T20:48:44.213Z,1.00
2018-04-10T20:51:11.685Z,1.00
2018-04-10T20:53:39.172Z,1.00
2018-04-10T20:56:09.994Z,1.00
2018-04-10T20:58:38.226Z,1.00
2018-04-10T21:01:05.689Z,1.00
2018-04-10T21:03:33.161Z,1.00
2018-04-10T21:06:01.387Z,1.00
2018-04-10T21:08:29.615Z,1.00
2018-04-10T21:10:57.073Z,1.00
2018-04-10T21:13:24.545Z,1.00
2018-04-10T21:15:52.018Z,1.00
2018-04-10T21:18:19.486Z,1.00
2018-04-10T21:20:47.910Z,1.00
2018-04-10T21:23:25.269Z,1.00
2018-04-10T21:25:52.727Z,1.00
2018-04-10T21:28:20.962Z,1.00
2018-04-10T21:30:48.414Z,1.00
2018-04-10T21:33:16.645Z,1.00
2018-04-10T21:35:45.000Z,1.00
2018-04-10T21:38:12.474Z,1.00
2018-04-10T21:40:39.927Z,1.00
2018-04-10T21:43:13.127Z,1.00
2018-04-10T21:45:40.590Z,1.00
2018-04-10T21:48:08.804Z,1.00
2018-04-10T21:50:40.054Z,1.00
2018-04-10T21:53:09.279Z,1.00
2018-04-10T21:55:37.518Z,1.00
2018-04-10T21:58:05.037Z,1.00
2018-04-10T22:00:35.401Z,1.00
2018-04-10T22:03:05.544Z,1.00
2018-04-10T22:05:33.019Z,1.00
2018-04-10T22:08:00.473Z,1.00
2018-04-10T22:10:27.946Z,1.00
2018-04-10T22:12:56.403Z,1.00
2018-04-10T22:15:24.646Z,1.00
2018-04-10T22:17:52.123Z,1.00
2018-04-10T22:20:19.581Z,1.00
2018-04-10T22:22:47.807Z,1.00
2018-04-10T22:25:15.264Z,1.00
2018-04-10T22:27:42.739Z,1.00
2018-04-10T22:30:12.009Z,1.00
2018-04-10T22:32:41.188Z,1.00
2018-04-10T22:35:09.436Z,1.00
2018-04-10T22:37:36.884Z,1.00
2018-04-10T22:40:04.358Z,1.00
2018-04-10T22:42:31.814Z,1.00
2018-04-10T22:44:59.277Z,1.00
2018-04-10T22:47:26.749Z,1.00
2018-04-10T22:49:59.594Z,1.00
2018-04-10T22:52:27.829Z,1.00
2018-04-10T22:54:56.189Z,1.00
2018-04-10T22:57:23.659Z,1.00
2018-04-10T22:59:51.130Z,1.00
2018-04-10T23:02:18.602Z,1.00
2018-04-10T23:04:46.059Z,1.00
2018-04-10T23:07:13.547Z,1.00
2018-04-10T23:09:41.010Z,1.00
2018-04-10T23:12:08.503Z,1.00
2018-04-10T23:14:36.992Z,1.00
2018-04-10T23:17:04.461Z,1.00
2018-04-10T23:19:31.920Z,1.00
2018-04-10T23:21:59.395Z,1.00
2018-04-10T23:24:26.864Z,1.00
2018-04-10T23:26:54.338Z,1.00
2018-04-10T23:29:22.567Z,1.00
2018-04-10T23:31:50.953Z,1.00
2018-04-10T23:34:18.421Z,1.00
2018-04-10T23:36:45.893Z,1.00
2018-04-10T23:39:13.360Z,1.00
2018-04-10T23:41:40.837Z,1.00
2018-04-10T23:44:09.273Z,1.00
2018-04-10T23:46:39.440Z,1.00
2018-04-10T23:49:06.907Z,1.00
2018-04-10T23:51:36.121Z,1.00
2018-04-10T23:54:04.371Z,1.00
2018-04-10T23:56:31.834Z,1.00
2018-04-10T23:58:59.299Z,1.00
